sensor_id;sensor_type;location;lat;lon;timestamp;pressure;altitude;pressure_sealevel;temperature;humidity
7321;BME280;3701;49.346;8.798;2022-07-04T00:00:57;100604.13;;;16.68;89.58
7321;BME280;3701;49.346;8.798;2022-07-04T00:03:22;100601.41;;;16.58;90.56
7321;BME280;3701;49.346;8.798;2022-07-04T00:05:48;100597.69;;;16.60;90.56
7321;BME280;3701;49.346;8.798;2022-07-04T00:08:16;100594.44;;;16.47;90.76
7321;BME280;3701;49.346;8.798;2022-07-04T00:10:41;100597.00;;;16.37;92.53
7321;BME280;3701;49.346;8.798;2022-07-04T00:13:07;100600.41;;;16.49;92.08
7321;BME280;3701;49.346;8.798;2022-07-04T00:15:37;100598.16;;;16.44;92.16
7321;BME280;3701;49.346;8.798;2022-07-04T00:18:03;100586.13;;;16.52;91.75
7321;BME280;3701;49.346;8.798;2022-07-04T00:20:31;100597.78;;;16.28;91.69
7321;BME280;3701;49.346;8.798;2022-07-04T00:22:56;100587.69;;;16.33;92.66
7321;BME280;3701;49.346;8.798;2022-07-04T00:25:21;100593.78;;;16.34;91.54
7321;BME280;3701;49.346;8.798;2022-07-04T00:27:47;100586.44;;;16.37;91.56
7321;BME280;3701;49.346;8.798;2022-07-04T00:30:13;100592.88;;;16.23;91.47
7321;BME280;3701;49.346;8.798;2022-07-04T00:32:38;100597.56;;;15.99;93.94
7321;BME280;3701;49.346;8.798;2022-07-04T00:35:04;100588.13;;;16.17;93.61
7321;BME280;3701;49.346;8.798;2022-07-04T00:37:30;100580.78;;;16.21;92.95
7321;BME280;3701;49.346;8.798;2022-07-04T00:39:58;100571.28;;;16.08;92.76
7321;BME280;3701;49.346;8.798;2022-07-04T00:42:23;100581.81;;;16.08;92.93
7321;BME280;3701;49.346;8.798;2022-07-04T00:44:49;100584.22;;;16.12;93.04
7321;BME280;3701;49.346;8.798;2022-07-04T00:47:14;100588.97;;;16.18;92.47
7321;BME280;3701;49.346;8.798;2022-07-04T00:49:42;100605.03;;;16.15;93.19
7321;BME280;3701;49.346;8.798;2022-07-04T00:52:12;100594.78;;;16.00;93.10
7321;BME280;3701;49.346;8.798;2022-07-04T00:54:40;100586.13;;;15.88;92.40
7321;BME280;3701;49.346;8.798;2022-07-04T00:57:08;100594.09;;;15.98;91.37
7321;BME280;3701;49.346;8.798;2022-07-04T00:59:33;100600.03;;;15.79;93.27
7321;BME280;3701;49.346;8.798;2022-07-04T01:01:59;100607.09;;;15.79;93.46
7321;BME280;3701;49.346;8.798;2022-07-04T01:04:24;100617.06;;;15.75;93.75
7321;BME280;3701;49.346;8.798;2022-07-04T01:06:50;100607.44;;;15.74;95.16
7321;BME280;3701;49.346;8.798;2022-07-04T01:09:15;100608.63;;;15.81;95.05
7321;BME280;3701;49.346;8.798;2022-07-04T01:11:41;100617.63;;;15.79;94.51
7321;BME280;3701;49.346;8.798;2022-07-04T01:14:06;100609.97;;;15.64;95.03
7321;BME280;3701;49.346;8.798;2022-07-04T01:16:35;100635.59;;;15.62;95.07
7321;BME280;3701;49.346;8.798;2022-07-04T01:19:00;100620.03;;;15.59;95.14
7321;BME280;3701;49.346;8.798;2022-07-04T01:21:28;100622.31;;;15.52;95.71
7321;BME280;3701;49.346;8.798;2022-07-04T01:23:58;100634.78;;;15.62;94.37
7321;BME280;3701;49.346;8.798;2022-07-04T01:26:28;100620.66;;;15.51;94.69
7321;BME280;3701;49.346;8.798;2022-07-04T01:28:53;100633.72;;;15.53;94.61
7321;BME280;3701;49.346;8.798;2022-07-04T01:31:19;100615.88;;;15.45;93.69
7321;BME280;3701;49.346;8.798;2022-07-04T01:33:46;100613.84;;;15.49;93.82
7321;BME280;3701;49.346;8.798;2022-07-04T01:36:12;100605.88;;;15.28;95.47
7321;BME280;3701;49.346;8.798;2022-07-04T01:38:37;100615.81;;;15.36;95.55
7321;BME280;3701;49.346;8.798;2022-07-04T01:41:02;100622.84;;;15.35;95.88
7321;BME280;3701;49.346;8.798;2022-07-04T01:43:28;100624.53;;;15.25;96.41
7321;BME280;3701;49.346;8.798;2022-07-04T01:45:53;100617.03;;;15.20;96.26
7321;BME280;3701;49.346;8.798;2022-07-04T01:48:21;100617.47;;;15.03;97.02
7321;BME280;3701;49.346;8.798;2022-07-04T01:50:48;100615.31;;;15.08;97.04
7321;BME280;3701;49.346;8.798;2022-07-04T01:53:16;100615.31;;;15.08;97.65
7321;BME280;3701;49.346;8.798;2022-07-04T01:55:46;100608.53;;;15.05;97.88
7321;BME280;3701;49.346;8.798;2022-07-04T01:58:11;100614.63;;;15.06;97.65
7321;BME280;3701;49.346;8.798;2022-07-04T02:00:37;100618.81;;;14.97;97.35
7321;BME280;3701;49.346;8.798;2022-07-04T02:03:21;100615.00;;;14.90;98.14
7321;BME280;3701;49.346;8.798;2022-07-04T02:05:51;100619.41;;;15.01;98.51
7321;BME280;3701;49.346;8.798;2022-07-04T02:08:16;100620.34;;;14.77;99.06
7321;BME280;3701;49.346;8.798;2022-07-04T02:10:41;100634.81;;;14.71;100.00
7321;BME280;3701;49.346;8.798;2022-07-04T02:13:07;100651.66;;;14.80;100.00
7321;BME280;3701;49.346;8.798;2022-07-04T02:15:33;100641.41;;;14.88;99.32
7321;BME280;3701;49.346;8.798;2022-07-04T02:17:59;100652.28;;;14.84;99.01
7321;BME280;3701;49.346;8.798;2022-07-04T02:20:25;100656.69;;;14.83;99.21
7321;BME280;3701;49.346;8.798;2022-07-04T02:22:50;100653.00;;;14.74;99.31
7321;BME280;3701;49.346;8.798;2022-07-04T02:25:16;100649.66;;;14.72;99.09
7321;BME280;3701;49.346;8.798;2022-07-04T02:27:45;100652.63;;;14.79;98.90
7321;BME280;3701;49.346;8.798;2022-07-04T02:30:13;100653.28;;;14.58;99.80
7321;BME280;3701;49.346;8.798;2022-07-04T02:32:39;100656.16;;;14.55;100.00
7321;BME280;3701;49.346;8.798;2022-07-04T02:35:05;100657.91;;;14.55;100.00
7321;BME280;3701;49.346;8.798;2022-07-04T02:37:30;100668.84;;;14.62;100.00
7321;BME280;3701;49.346;8.798;2022-07-04T02:40:00;100670.63;;;14.61;100.00
7321;BME280;3701;49.346;8.798;2022-07-04T02:42:29;100669.28;;;14.55;100.00
7321;BME280;3701;49.346;8.798;2022-07-04T02:44:55;100663.06;;;14.45;99.87
7321;BME280;3701;49.346;8.798;2022-07-04T02:47:23;100672.75;;;14.56;100.00
7321;BME280;3701;49.346;8.798;2022-07-04T02:49:48;100663.66;;;14.49;100.00
7321;BME280;3701;49.346;8.798;2022-07-04T02:52:16;100648.00;;;14.47;100.00
7321;BME280;3701;49.346;8.798;2022-07-04T02:54:47;100659.28;;;14.36;100.00
7321;BME280;3701;49.346;8.798;2022-07-04T02:57:13;100665.03;;;14.41;100.00
7321;BME280;3701;49.346;8.798;2022-07-04T02:59:41;100684.19;;;14.44;100.00
7321;BME280;3701;49.346;8.798;2022-07-04T03:02:11;100679.50;;;14.36;100.00
7321;BME280;3701;49.346;8.798;2022-07-04T03:04:39;100677.72;;;14.12;100.00
7321;BME280;3701;49.346;8.798;2022-07-04T03:07:08;100689.13;;;14.24;100.00
7321;BME280;3701;49.346;8.798;2022-07-04T03:09:37;100702.63;;;14.31;100.00
7321;BME280;3701;49.346;8.798;2022-07-04T03:12:03;100700.47;;;14.25;100.00
7321;BME280;3701;49.346;8.798;2022-07-04T03:14:28;100698.50;;;14.15;100.00
7321;BME280;3701;49.346;8.798;2022-07-04T03:16:54;100718.88;;;14.25;100.00
7321;BME280;3701;49.346;8.798;2022-07-04T03:19:21;100735.63;;;14.11;100.00
7321;BME280;3701;49.346;8.798;2022-07-04T03:21:47;100734.63;;;14.25;100.00
7321;BME280;3701;49.346;8.798;2022-07-04T03:24:12;100745.38;;;14.21;100.00
7321;BME280;3701;49.346;8.798;2022-07-04T03:26:37;100759.50;;;14.32;100.00
7321;BME280;3701;49.346;8.798;2022-07-04T03:29:03;100754.81;;;14.24;100.00
7321;BME280;3701;49.346;8.798;2022-07-04T03:31:29;100766.28;;;14.23;100.00
7321;BME280;3701;49.346;8.798;2022-07-04T03:33:54;100775.53;;;14.16;100.00
7321;BME280;3701;49.346;8.798;2022-07-04T03:36:22;100773.47;;;14.08;100.00
7321;BME280;3701;49.346;8.798;2022-07-04T03:38:52;100768.22;;;14.08;100.00
7321;BME280;3701;49.346;8.798;2022-07-04T03:41:18;100779.34;;;14.12;100.00
7321;BME280;3701;49.346;8.798;2022-07-04T03:43:43;100791.34;;;14.03;100.00
7321;BME280;3701;49.346;8.798;2022-07-04T03:46:08;100788.88;;;13.89;100.00
7321;BME280;3701;49.346;8.798;2022-07-04T03:48:36;100799.41;;;14.13;100.00
7321;BME280;3701;49.346;8.798;2022-07-04T03:51:06;100806.63;;;14.22;100.00
7321;BME280;3701;49.346;8.798;2022-07-04T03:53:31;100797.63;;;14.13;100.00
7321;BME280;3701;49.346;8.798;2022-07-04T03:56:00;100782.13;;;13.84;100.00
7321;BME280;3701;49.346;8.798;2022-07-04T03:58:25;100804.09;;;13.83;100.00
7321;BME280;3701;49.346;8.798;2022-07-04T04:00:50;100818.34;;;14.05;100.00
7321;BME280;3701;49.346;8.798;2022-07-04T04:03:16;100822.09;;;14.14;100.00
7321;BME280;3701;49.346;8.798;2022-07-04T04:06:03;100823.06;;;14.00;100.00
7321;BME280;3701;49.346;8.798;2022-07-04T04:08:31;100838.53;;;13.92;100.00
7321;BME280;3701;49.346;8.798;2022-07-04T04:10:59;100857.72;;;14.18;100.00
7321;BME280;3701;49.346;8.798;2022-07-04T04:13:24;100855.94;;;14.18;100.00
7321;BME280;3701;49.346;8.798;2022-07-04T04:15:49;100856.19;;;14.02;100.00
7321;BME280;3701;49.346;8.798;2022-07-04T04:18:15;100877.88;;;14.30;100.00
7321;BME280;3701;49.346;8.798;2022-07-04T04:20:40;100878.78;;;14.42;100.00
7321;BME280;3701;49.346;8.798;2022-07-04T04:23:06;100882.88;;;14.59;100.00
7321;BME280;3701;49.346;8.798;2022-07-04T04:25:32;100892.53;;;14.58;100.00
7321;BME280;3701;49.346;8.798;2022-07-04T04:27:59;100890.75;;;14.59;100.00
7321;BME280;3701;49.346;8.798;2022-07-04T04:30:27;100882.03;;;14.46;100.00
7321;BME280;3701;49.346;8.798;2022-07-04T04:32:52;100873.38;;;14.56;100.00
7321;BME280;3701;49.346;8.798;2022-07-04T04:35:18;100884.66;;;14.46;100.00
7321;BME280;3701;49.346;8.798;2022-07-04T04:37:45;100877.53;;;14.72;100.00
7321;BME280;3701;49.346;8.798;2022-07-04T04:40:15;100849.19;;;14.51;100.00
7321;BME280;3701;49.346;8.798;2022-07-04T04:42:43;100855.56;;;14.73;100.00
7321;BME280;3701;49.346;8.798;2022-07-04T04:45:09;100856.47;;;14.61;100.00
7321;BME280;3701;49.346;8.798;2022-07-04T04:47:34;100864.19;;;14.75;100.00
7321;BME280;3701;49.346;8.798;2022-07-04T04:50:00;100897.56;;;15.34;100.00
7321;BME280;3701;49.346;8.798;2022-07-04T04:52:26;100917.63;;;16.72;98.86
7321;BME280;3701;49.346;8.798;2022-07-04T04:54:54;100959.19;;;17.88;90.09
7321;BME280;3701;49.346;8.798;2022-07-04T04:57:19;100961.84;;;19.20;82.44
7321;BME280;3701;49.346;8.798;2022-07-04T04:59:44;100960.00;;;19.79;76.98
7321;BME280;3701;49.346;8.798;2022-07-04T05:02:12;100978.72;;;20.80;73.01
7321;BME280;3701;49.346;8.798;2022-07-04T05:04:37;100959.78;;;20.37;72.45
7321;BME280;3701;49.346;8.798;2022-07-04T05:07:05;101013.81;;;22.18;67.35
7321;BME280;3701;49.346;8.798;2022-07-04T05:09:30;101009.53;;;22.51;67.07
7321;BME280;3701;49.346;8.798;2022-07-04T05:11:58;101009.91;;;23.15;63.10
7321;BME280;3701;49.346;8.798;2022-07-04T05:14:23;100986.94;;;23.23;61.83
7321;BME280;3701;49.346;8.798;2022-07-04T05:16:51;100948.56;;;21.53;67.02
7321;BME280;3701;49.346;8.798;2022-07-04T05:19:16;100953.63;;;21.91;66.57
7321;BME280;3701;49.346;8.798;2022-07-04T05:21:42;100970.06;;;22.12;65.28
7321;BME280;3701;49.346;8.798;2022-07-04T05:24:07;100998.28;;;23.41;61.94
7321;BME280;3701;49.346;8.798;2022-07-04T05:26:35;101019.84;;;24.85;56.39
7321;BME280;3701;49.346;8.798;2022-07-04T05:29:00;101012.38;;;25.11;55.53
7321;BME280;3701;49.346;8.798;2022-07-04T05:31:26;101033.94;;;25.94;52.71
7321;BME280;3701;49.346;8.798;2022-07-04T05:33:54;101026.16;;;26.07;51.48
7321;BME280;3701;49.346;8.798;2022-07-04T05:36:23;101000.81;;;25.57;53.96
7321;BME280;3701;49.346;8.798;2022-07-04T05:38:51;101020.44;;;25.72;53.75
7321;BME280;3701;49.346;8.798;2022-07-04T05:41:17;101039.28;;;26.77;50.61
7321;BME280;3701;49.346;8.798;2022-07-04T05:43:44;101024.75;;;26.86;48.63
7321;BME280;3701;49.346;8.798;2022-07-04T05:46:14;101016.81;;;26.63;48.29
7321;BME280;3701;49.346;8.798;2022-07-04T05:48:40;101012.66;;;26.45;49.59
7321;BME280;3701;49.346;8.798;2022-07-04T05:51:05;101013.34;;;26.33;51.29
7321;BME280;3701;49.346;8.798;2022-07-04T05:53:31;101026.09;;;26.97;48.01
7321;BME280;3701;49.346;8.798;2022-07-04T05:55:57;101006.16;;;26.84;48.51
7321;BME280;3701;49.346;8.798;2022-07-04T05:58:22;101007.28;;;27.12;47.79
7321;BME280;3701;49.346;8.798;2022-07-04T06:00:47;100926.53;;;27.21;47.61
7321;BME280;3701;49.346;8.798;2022-07-04T06:03:13;100930.53;;;27.54;45.97
7321;BME280;3701;49.346;8.798;2022-07-04T06:05:38;100921.28;;;26.92;47.83
7321;BME280;3701;49.346;8.798;2022-07-04T06:08:03;100926.53;;;27.00;47.73
7321;BME280;3701;49.346;8.798;2022-07-04T06:10:29;100922.00;;;27.43;45.19
7321;BME280;3701;49.346;8.798;2022-07-04T06:12:55;100892.66;;;26.71;46.38
7321;BME280;3701;49.346;8.798;2022-07-04T06:15:23;100912.06;;;27.22;45.77
7321;BME280;3701;49.346;8.798;2022-07-04T06:17:48;100905.84;;;26.94;46.40
7321;BME280;3701;49.346;8.798;2022-07-04T06:20:13;100912.56;;;27.04;47.83
7321;BME280;3701;49.346;8.798;2022-07-04T06:22:50;100882.19;;;26.39;46.56
7321;BME280;3701;49.346;8.798;2022-07-04T06:25:17;100898.28;;;26.09;48.14
7321;BME280;3701;49.346;8.798;2022-07-04T06:27:47;100869.56;;;25.58;46.70
7321;BME280;3701;49.346;8.798;2022-07-04T06:30:14;100864.50;;;25.34;46.21
7321;BME280;3701;49.346;8.798;2022-07-04T06:32:46;100879.53;;;25.35;48.98
7321;BME280;3701;49.346;8.798;2022-07-04T06:35:13;100877.34;;;25.68;46.31
7321;BME280;3701;49.346;8.798;2022-07-04T06:37:57;100881.88;;;25.83;45.00
7321;BME280;3701;49.346;8.798;2022-07-04T06:40:25;100894.19;;;26.28;43.37
7321;BME280;3701;49.346;8.798;2022-07-04T06:42:50;100894.69;;;26.54;45.43
7321;BME280;3701;49.346;8.798;2022-07-04T06:45:18;100898.19;;;26.54;43.65
7321;BME280;3701;49.346;8.798;2022-07-04T06:47:44;100898.34;;;26.46;43.84
7321;BME280;3701;49.346;8.798;2022-07-04T06:50:11;100889.25;;;26.47;44.10
7321;BME280;3701;49.346;8.798;2022-07-04T06:52:39;100889.44;;;26.24;46.43
7321;BME280;3701;49.346;8.798;2022-07-04T06:55:06;100921.19;;;27.50;44.43
7321;BME280;3701;49.346;8.798;2022-07-04T06:57:32;100907.53;;;27.45;42.31
7321;BME280;3701;49.346;8.798;2022-07-04T06:59:57;100892.97;;;26.82;45.18
7321;BME280;3701;49.346;8.798;2022-07-04T07:02:22;100877.72;;;26.46;42.73
7321;BME280;3701;49.346;8.798;2022-07-04T07:04:48;100873.19;;;26.10;46.28
7321;BME280;3701;49.346;8.798;2022-07-04T07:07:16;100860.25;;;26.29;43.19
7321;BME280;3701;49.346;8.798;2022-07-04T07:09:43;100878.03;;;26.95;44.85
7321;BME280;3701;49.346;8.798;2022-07-04T07:12:09;100875.03;;;27.04;45.58
7321;BME280;3701;49.346;8.798;2022-07-04T07:14:34;100845.03;;;26.73;43.89
7321;BME280;3701;49.346;8.798;2022-07-04T07:16:59;100835.34;;;25.84;44.88
7321;BME280;3701;49.346;8.798;2022-07-04T07:19:28;100845.53;;;26.03;45.85
7321;BME280;3701;49.346;8.798;2022-07-04T07:21:56;100836.66;;;26.39;45.52
7321;BME280;3701;49.346;8.798;2022-07-04T07:24:21;100872.72;;;27.86;41.63
7321;BME280;3701;49.346;8.798;2022-07-04T07:26:51;100859.38;;;27.65;41.72
7321;BME280;3701;49.346;8.798;2022-07-04T07:29:16;100858.91;;;27.54;41.26
7321;BME280;3701;49.346;8.798;2022-07-04T07:31:44;100868.94;;;28.15;42.79
7321;BME280;3701;49.346;8.798;2022-07-04T07:34:09;100868.50;;;28.12;42.69
7321;BME280;3701;49.346;8.798;2022-07-04T07:36:38;100839.72;;;28.74;41.81
7321;BME280;3701;49.346;8.798;2022-07-04T07:39:05;100847.34;;;28.57;41.34
7321;BME280;3701;49.346;8.798;2022-07-04T07:41:31;100870.53;;;29.52;40.09
7321;BME280;3701;49.346;8.798;2022-07-04T07:43:58;100837.25;;;28.99;38.80
7321;BME280;3701;49.346;8.798;2022-07-04T07:46:26;100833.63;;;28.25;42.67
7321;BME280;3701;49.346;8.798;2022-07-04T07:48:51;100856.28;;;29.31;40.70
7321;BME280;3701;49.346;8.798;2022-07-04T07:51:19;100840.75;;;29.13;40.42
7321;BME280;3701;49.346;8.798;2022-07-04T07:53:44;100816.78;;;28.71;38.75
7321;BME280;3701;49.346;8.798;2022-07-04T07:56:10;100772.53;;;26.59;43.51
7321;BME280;3701;49.346;8.798;2022-07-04T07:58:35;100817.09;;;28.28;38.66
7321;BME280;3701;49.346;8.798;2022-07-04T08:01:01;100824.34;;;28.34;42.55
7321;BME280;3701;49.346;8.798;2022-07-04T08:03:30;100839.53;;;29.22;37.92
7321;BME280;3701;49.346;8.798;2022-07-04T08:06:14;100817.41;;;28.73;38.28
7321;BME280;3701;49.346;8.798;2022-07-04T08:08:41;100803.31;;;28.51;39.83
7321;BME280;3701;49.346;8.798;2022-07-04T08:11:12;100824.22;;;29.03;40.25
7321;BME280;3701;49.346;8.798;2022-07-04T08:13:40;100840.69;;;29.60;39.92
7321;BME280;3701;49.346;8.798;2022-07-04T08:16:06;100828.56;;;29.96;39.86
7321;BME280;3701;49.346;8.798;2022-07-04T08:18:32;100832.72;;;30.37;38.21
7321;BME280;3701;49.346;8.798;2022-07-04T08:20:57;100811.94;;;30.12;36.63
7321;BME280;3701;49.346;8.798;2022-07-04T08:23:26;100814.13;;;29.83;39.39
7321;BME280;3701;49.346;8.798;2022-07-04T08:25:51;100826.69;;;30.42;38.32
7321;BME280;3701;49.346;8.798;2022-07-04T08:28:16;100824.34;;;30.52;38.32
7321;BME280;3701;49.346;8.798;2022-07-04T08:30:42;100814.13;;;30.61;36.18
7321;BME280;3701;49.346;8.798;2022-07-04T08:33:10;100790.56;;;29.72;37.46
7321;BME280;3701;49.346;8.798;2022-07-04T08:35:36;100801.66;;;29.89;39.20
7321;BME280;3701;49.346;8.798;2022-07-04T08:38:01;100802.78;;;29.68;39.06
7321;BME280;3701;49.346;8.798;2022-07-04T08:40:28;100815.66;;;30.11;36.73
7321;BME280;3701;49.346;8.798;2022-07-04T08:42:54;100866.66;;;30.06;37.37
7321;BME280;3701;49.346;8.798;2022-07-04T08:45:28;100825.47;;;29.99;39.20
7321;BME280;3701;49.346;8.798;2022-07-04T08:48:04;100828.19;;;30.63;38.72
7321;BME280;3701;49.346;8.798;2022-07-04T08:50:33;100814.75;;;29.86;39.08
7321;BME280;3701;49.346;8.798;2022-07-04T08:53:11;100812.84;;;30.38;39.25
7321;BME280;3701;49.346;8.798;2022-07-04T08:55:39;100805.88;;;29.72;38.62
7321;BME280;3701;49.346;8.798;2022-07-04T08:58:24;100823.34;;;31.03;37.04
7321;BME280;3701;49.346;8.798;2022-07-04T09:03:28;100787.69;;;30.12;38.79
7321;BME280;3701;49.346;8.798;2022-07-04T09:05:59;100794.56;;;30.08;37.95
7321;BME280;3701;49.346;8.798;2022-07-04T09:08:25;100788.66;;;30.18;37.47
7321;BME280;3701;49.346;8.798;2022-07-04T09:10:51;100784.03;;;30.32;36.89
7321;BME280;3701;49.346;8.798;2022-07-04T09:13:18;100792.38;;;30.55;36.46
7321;BME280;3701;49.346;8.798;2022-07-04T09:15:46;100800.38;;;30.69;36.61
7321;BME280;3701;49.346;8.798;2022-07-04T09:21:08;100774.47;;;30.43;36.90
7321;BME280;3701;49.346;8.798;2022-07-04T09:23:43;100789.53;;;30.50;36.44
7321;BME280;3701;49.346;8.798;2022-07-04T09:26:18;100796.09;;;30.61;36.34
7321;BME280;3701;49.346;8.798;2022-07-04T09:28:50;100801.31;;;30.81;36.20
7321;BME280;3701;49.346;8.798;2022-07-04T09:31:28;100787.88;;;30.49;37.16
7321;BME280;3701;49.346;8.798;2022-07-04T09:36:31;100791.66;;;30.35;35.65
7321;BME280;3701;49.346;8.798;2022-07-04T09:39:15;100778.50;;;28.89;36.84
7321;BME280;3701;49.346;8.798;2022-07-04T09:42:01;100811.47;;;29.63;37.10
7321;BME280;3701;49.346;8.798;2022-07-04T09:44:43;100814.22;;;30.47;36.21
7321;BME280;3701;49.346;8.798;2022-07-04T09:47:22;100813.69;;;30.89;34.87
7321;BME280;3701;49.346;8.798;2022-07-04T09:52:29;100810.00;;;30.58;35.81
7321;BME280;3701;49.346;8.798;2022-07-04T09:55:04;100612.00;;;30.72;33.66
7321;BME280;3701;49.346;8.798;2022-07-04T09:57:34;100614.69;;;30.54;34.62
7321;BME280;3701;49.346;8.798;2022-07-04T10:02:55;100612.59;;;30.93;33.68
7321;BME280;3701;49.346;8.798;2022-07-04T10:05:27;100627.34;;;31.27;34.64
7321;BME280;3701;49.346;8.798;2022-07-04T10:07:55;100614.06;;;31.14;35.02
7321;BME280;3701;49.346;8.798;2022-07-04T10:10:30;100597.44;;;30.99;33.77
7321;BME280;3701;49.346;8.798;2022-07-04T10:13:10;100590.44;;;30.72;32.75
7321;BME280;3701;49.346;8.798;2022-07-04T10:15:40;100592.47;;;30.58;33.11
7321;BME280;3701;49.346;8.798;2022-07-04T10:18:07;100605.06;;;30.65;33.73
7321;BME280;3701;49.346;8.798;2022-07-04T10:20:34;100661.38;;;30.73;34.79
7321;BME280;3701;49.346;8.798;2022-07-04T10:23:02;100656.69;;;30.43;33.83
7321;BME280;3701;49.346;8.798;2022-07-04T10:25:28;100630.66;;;29.73;32.23
7321;BME280;3701;49.346;8.798;2022-07-04T10:27:54;100649.44;;;29.48;32.86
7321;BME280;3701;49.346;8.798;2022-07-04T10:30:26;100649.28;;;28.71;35.62
7321;BME280;3701;49.346;8.798;2022-07-04T10:32:54;100682.06;;;30.03;35.93
7321;BME280;3701;49.346;8.798;2022-07-04T10:35:50;100675.97;;;30.15;33.58
7321;BME280;3701;49.346;8.798;2022-07-04T10:38:32;100675.78;;;30.42;32.35
7321;BME280;3701;49.346;8.798;2022-07-04T10:41:04;100665.81;;;29.85;32.65
7321;BME280;3701;49.346;8.798;2022-07-04T10:48:50;100669.81;;;30.33;32.72
7321;BME280;3701;49.346;8.798;2022-07-04T10:51:32;100649.88;;;30.15;30.27
7321;BME280;3701;49.346;8.798;2022-07-04T10:54:14;100667.00;;;30.21;32.95
7321;BME280;3701;49.346;8.798;2022-07-04T11:01:52;100661.16;;;29.99;34.17
7321;BME280;3701;49.346;8.798;2022-07-04T11:07:14;100643.72;;;29.31;34.01
7321;BME280;3701;49.346;8.798;2022-07-04T11:09:42;100649.09;;;29.38;34.45
7321;BME280;3701;49.346;8.798;2022-07-04T11:12:11;100667.31;;;30.06;34.07
7321;BME280;3701;49.346;8.798;2022-07-04T11:14:43;100657.53;;;29.87;33.12
7321;BME280;3701;49.346;8.798;2022-07-04T11:19:47;100684.38;;;30.75;33.64
7321;BME280;3701;49.346;8.798;2022-07-04T11:22:22;100656.75;;;30.36;32.27
7321;BME280;3701;49.346;8.798;2022-07-04T11:24:52;100660.75;;;30.52;32.63
7321;BME280;3701;49.346;8.798;2022-07-04T11:27:23;100648.53;;;30.25;33.39
7321;BME280;3701;49.346;8.798;2022-07-04T11:29:52;100648.00;;;30.41;30.90
7321;BME280;3701;49.346;8.798;2022-07-04T11:32:20;100637.88;;;30.11;32.33
7321;BME280;3701;49.346;8.798;2022-07-04T11:34:47;100627.97;;;29.73;31.87
7321;BME280;3701;49.346;8.798;2022-07-04T11:37:14;100626.28;;;29.47;33.03
7321;BME280;3701;49.346;8.798;2022-07-04T11:39:40;100610.69;;;29.10;31.55
7321;BME280;3701;49.346;8.798;2022-07-04T11:42:05;100596.03;;;28.14;34.81
7321;BME280;3701;49.346;8.798;2022-07-04T11:44:49;100628.84;;;28.77;35.89
7321;BME280;3701;49.346;8.798;2022-07-04T11:47:38;100597.03;;;27.87;36.37
7321;BME280;3701;49.346;8.798;2022-07-04T11:50:10;100625.88;;;28.85;37.18
7321;BME280;3701;49.346;8.798;2022-07-04T11:55:02;100622.00;;;29.33;36.73
7321;BME280;3701;49.346;8.798;2022-07-04T11:57:33;100612.78;;;29.08;36.52
7321;BME280;3701;49.346;8.798;2022-07-04T12:00:01;100608.88;;;29.04;33.53
7321;BME280;3701;49.346;8.798;2022-07-04T12:02:29;100601.41;;;29.06;36.44
7321;BME280;3701;49.346;8.798;2022-07-04T12:04:55;100595.91;;;28.88;34.52
7321;BME280;3701;49.346;8.798;2022-07-04T12:07:26;100599.22;;;28.83;38.90
7321;BME280;3701;49.346;8.798;2022-07-04T12:09:55;100605.28;;;29.24;36.36
7321;BME280;3701;49.346;8.798;2022-07-04T12:12:21;100611.72;;;29.55;35.88
7321;BME280;3701;49.346;8.798;2022-07-04T12:15:06;100589.13;;;29.31;35.05
7321;BME280;3701;49.346;8.798;2022-07-04T12:17:38;100609.72;;;29.50;35.55
7321;BME280;3701;49.346;8.798;2022-07-04T12:20:18;100606.56;;;29.53;37.47
7321;BME280;3701;49.346;8.798;2022-07-04T12:22:50;100622.50;;;29.55;37.88
7321;BME280;3701;49.346;8.798;2022-07-04T12:30:29;100645.59;;;28.39;33.66
7321;BME280;3701;49.346;8.798;2022-07-04T12:33:00;100636.66;;;27.78;34.56
7321;BME280;3701;49.346;8.798;2022-07-04T12:40:29;100679.06;;;29.41;35.91
7321;BME280;3701;49.346;8.798;2022-07-04T12:42:56;100663.75;;;29.49;35.42
7321;BME280;3701;49.346;8.798;2022-07-04T12:45:22;100664.78;;;29.47;35.11
7321;BME280;3701;49.346;8.798;2022-07-04T12:47:48;100668.72;;;29.83;34.22
7321;BME280;3701;49.346;8.798;2022-07-04T12:50:25;100662.50;;;29.90;31.63
7321;BME280;3701;49.346;8.798;2022-07-04T12:52:53;100660.03;;;30.13;31.53
7321;BME280;3701;49.346;8.798;2022-07-04T12:55:24;100658.00;;;30.09;30.11
7321;BME280;3701;49.346;8.798;2022-07-04T12:57:52;100657.25;;;30.20;32.73
7321;BME280;3701;49.346;8.798;2022-07-04T13:00:18;100647.56;;;30.19;30.06
7321;BME280;3701;49.346;8.798;2022-07-04T13:02:43;100631.75;;;29.97;29.58
7321;BME280;3701;49.346;8.798;2022-07-04T13:05:08;100625.41;;;29.92;32.31
7321;BME280;3701;49.346;8.798;2022-07-04T13:07:34;100609.78;;;29.37;31.65
7321;BME280;3701;49.346;8.798;2022-07-04T13:10:01;100613.00;;;29.52;32.68
7321;BME280;3701;49.346;8.798;2022-07-04T13:12:29;100611.22;;;29.71;31.90
7321;BME280;3701;49.346;8.798;2022-07-04T13:14:56;100600.66;;;29.38;31.83
7321;BME280;3701;49.346;8.798;2022-07-04T13:17:23;100613.03;;;29.45;34.04
7321;BME280;3701;49.346;8.798;2022-07-04T13:19:49;100598.31;;;29.09;34.36
7321;BME280;3701;49.346;8.798;2022-07-04T13:22:17;100616.09;;;29.56;33.95
7321;BME280;3701;49.346;8.798;2022-07-04T13:24:47;100581.47;;;28.76;32.69
7321;BME280;3701;49.346;8.798;2022-07-04T13:27:12;100559.50;;;27.93;33.89
7321;BME280;3701;49.346;8.798;2022-07-04T13:29:40;100590.19;;;28.64;33.70
7321;BME280;3701;49.346;8.798;2022-07-04T13:32:06;100563.59;;;28.16;33.10
7321;BME280;3701;49.346;8.798;2022-07-04T13:34:31;100571.63;;;28.29;34.48
7321;BME280;3701;49.346;8.798;2022-07-04T13:37:02;100580.75;;;29.00;34.13
7321;BME280;3701;49.346;8.798;2022-07-04T13:39:30;100592.38;;;29.39;35.01
7321;BME280;3701;49.346;8.798;2022-07-04T13:41:55;100599.38;;;29.79;34.04
7321;BME280;3701;49.346;8.798;2022-07-04T13:44:20;100581.97;;;29.50;33.32
7321;BME280;3701;49.346;8.798;2022-07-04T13:46:48;100567.28;;;29.07;32.84
7321;BME280;3701;49.346;8.798;2022-07-04T13:49:14;100545.22;;;27.99;34.78
7321;BME280;3701;49.346;8.798;2022-07-04T13:51:40;100560.66;;;28.51;33.82
7321;BME280;3701;49.346;8.798;2022-07-04T13:54:08;100570.78;;;28.56;34.50
7321;BME280;3701;49.346;8.798;2022-07-04T13:56:37;100569.53;;;28.51;33.49